Time;durP1;ratioP1;P1;durP2;ratioP2;P2;SDS_P1;SDS_P2;PMS_P1;PMS_P2;Temp;Humidity;BMP_temperature;BMP_pressure;BME280_temperature;BME280_humidity;BME280_pressure;Samples;Min_cycle;Max_cycle;Signal;HPM_P1;HPM_P2
2022/10/10 00:00:42;;;;;;;3.65;1.23;;;18.10;99.90;;;;;;5057074;28;20223;-76
2022/10/10 00:03:15;;;;;;;5.63;1.38;;;18.10;99.90;;;;;;5059280;28;20211;-76
2022/10/10 00:05:46;;;;;;;3.58;0.90;;;18.20;99.90;;;;;;5059863;28;22071;-77
2022/10/10 00:08:17;;;;;;;5.35;1.30;;;18.30;99.90;;;;;;5058250;28;20615;-77
2022/10/10 00:10:48;;;;;;;2.83;1.10;;;18.40;99.90;;;;;;5057416;28;20222;-77
2022/10/10 00:13:19;;;;;;;5.75;1.30;;;18.40;99.90;;;;;;5063084;28;20235;-77
2022/10/10 00:15:50;;;;;;;6.45;1.20;;;18.40;99.90;;;;;;5059047;28;20200;-77
2022/10/10 00:18:23;;;;;;;4.97;1.00;;;18.40;99.90;;;;;;5059473;28;20922;-77
2022/10/10 00:20:56;;;;;;;2.45;1.00;;;18.30;99.90;;;;;;5068657;28;20197;-77
2022/10/10 00:23:28;;;;;;;4.05;1.00;;;18.30;99.90;;;;;;5057936;28;20705;-77
2022/10/10 00:25:59;;;;;;;5.90;1.30;;;18.30;99.90;;;;;;5058004;28;20200;-77
2022/10/10 00:28:31;;;;;;;4.90;0.80;;;18.30;99.90;;;;;;5057890;28;20195;-77
2022/10/10 00:31:01;;;;;;;3.08;0.80;;;18.30;99.90;;;;;;5058477;28;20729;-78
2022/10/10 00:33:34;;;;;;;4.07;0.80;;;18.20;99.90;;;;;;5063607;28;20223;-77
2022/10/10 00:36:06;;;;;;;5.40;1.10;;;18.30;99.90;;;;;;5058164;28;20211;-76
2022/10/10 00:38:37;;;;;;;5.32;1.00;;;18.20;99.90;;;;;;5059397;28;20199;-77
2022/10/10 00:41:08;;;;;;;6.00;1.02;;;18.20;99.90;;;;;;5057635;28;20203;-76
2022/10/10 00:43:40;;;;;;;3.95;0.93;;;18.20;99.90;;;;;;5060718;28;20200;-76
2022/10/10 00:46:10;;;;;;;4.20;1.10;;;18.20;99.90;;;;;;5071412;28;20210;-77
2022/10/10 00:48:46;;;;;;;4.70;0.80;;;18.20;99.90;;;;;;5059622;28;20570;-76
2022/10/10 00:51:20;;;;;;;2.53;0.80;;;18.20;99.90;;;;;;5060577;28;20295;-76
2022/10/10 00:53:53;;;;;;;4.47;1.17;;;18.30;99.90;;;;;;5061791;28;20226;-76
2022/10/10 00:56:27;;;;;;;3.67;0.90;;;18.30;99.90;;;;;;5062142;28;20765;-76
2022/10/10 00:59:01;;;;;;;5.57;1.17;;;18.20;99.90;;;;;;5060771;28;20205;-75
2022/10/10 01:01:32;;;;;;;4.78;0.90;;;18.30;99.90;;;;;;5061293;28;20704;-76
2022/10/10 01:04:05;;;;;;;5.03;1.30;;;18.30;99.90;;;;;;5061969;28;20199;-76
2022/10/10 01:06:36;;;;;;;6.10;1.15;;;18.30;99.90;;;;;;5062769;28;20196;-77
2022/10/10 01:09:07;;;;;;;5.70;1.33;;;18.20;99.90;;;;;;5061915;28;20690;-77
2022/10/10 01:11:49;;;;;;;6.65;1.20;;;18.20;99.90;;;;;;5062112;28;20279;-76
2022/10/10 01:14:31;;;;;;;4.80;1.10;;;18.40;99.90;;;;;;5060901;28;20372;-77
2022/10/10 01:17:12;;;;;;;2.25;1.00;;;18.60;99.90;;;;;;5062234;28;20627;-76
2022/10/10 01:20:13;;;;;;;5.43;1.10;;;18.70;99.90;;;;;;5069559;28;20214;-78
2022/10/10 01:22:56;;;;;;;6.70;1.27;;;18.90;99.90;;;;;;5052171;28;20770;-77
2022/10/10 01:25:32;;;;;;;2.45;0.80;;;19.10;99.90;;;;;;5062685;28;20199;-77
2022/10/10 01:28:09;;;;;;;4.82;1.20;;;19.20;99.90;;;;;;5060991;28;20662;-77
2022/10/10 01:30:44;;;;;;;4.55;1.00;;;19.40;99.90;;;;;;5063515;28;20299;-77
2022/10/10 01:33:18;;;;;;;4.95;0.80;;;19.40;99.90;;;;;;5062388;28;20222;-77
2022/10/10 01:35:55;;;;;;;4.10;0.93;;;19.30;99.90;;;;;;5061200;28;20191;-77
2022/10/10 01:38:36;;;;;;;2.95;0.95;;;19.40;99.90;;;;;;5067753;28;20199;-76
2022/10/10 01:41:12;;;;;;;1.95;1.13;;;19.30;99.90;;;;;;5061236;28;20572;-78
2022/10/10 01:43:43;;;;;;;5.95;1.00;;;19.30;99.90;;;;;;5060791;28;20199;-77
2022/10/10 01:46:18;;;;;;;2.58;0.85;;;19.30;99.90;;;;;;5061446;28;20605;-77
2022/10/10 01:48:52;;;;;;;2.75;0.90;;;19.20;99.90;;;;;;5063249;28;20199;-77
2022/10/10 01:51:48;;;;;;;3.45;1.10;;;19.10;99.90;;;;;;5062323;28;20566;-77
2022/10/10 01:54:33;;;;;;;5.80;1.17;;;19.00;99.90;;;;;;5060812;28;20578;-79
2022/10/10 01:57:24;;;;;;;4.25;1.25;;;18.90;99.90;;;;;;5061002;28;20261;-78
2022/10/10 02:00:08;;;;;;;3.97;1.17;;;18.90;99.90;;;;;;5061220;28;20210;-77
2022/10/10 02:02:48;;;;;;;4.07;1.17;;;18.70;99.90;;;;;;5061315;28;20219;-76
2022/10/10 02:05:24;;;;;;;3.33;0.93;;;18.50;99.90;;;;;;5062422;28;21758;-78
2022/10/10 02:07:59;;;;;;;6.32;1.02;;;18.50;99.90;;;;;;5062882;28;20194;-78
2022/10/10 02:10:34;;;;;;;3.45;1.13;;;18.50;99.90;;;;;;5063941;28;20202;-78
2022/10/10 02:13:07;;;;;;;2.92;0.93;;;18.50;99.90;;;;;;5059262;28;20277;-77
2022/10/10 02:15:43;;;;;;;2.83;0.90;;;18.30;99.90;;;;;;5059343;28;20738;-76
2022/10/10 02:18:19;;;;;;;5.35;0.90;;;18.30;99.90;;;;;;5061174;28;20237;-77
2022/10/10 02:20:52;;;;;;;4.25;0.90;;;18.20;99.90;;;;;;5061683;28;20571;-76
2022/10/10 02:23:25;;;;;;;2.95;1.00;;;18.20;99.90;;;;;;5071098;28;20865;-76
2022/10/10 02:28:59;;;;;;;3.15;0.95;;;18.20;99.90;;;;;;5059065;28;20279;-77
2022/10/10 02:34:34;;;;;;;4.85;1.20;;;17.90;99.90;;;;;;5069968;28;21326;-78
2022/10/10 02:37:07;;;;;;;3.30;1.08;;;17.90;99.90;;;;;;5069100;28;20591;-77
2022/10/10 02:39:44;;;;;;;3.35;0.82;;;18.00;99.90;;;;;;5070733;28;20208;-78
2022/10/10 02:42:18;;;;;;;2.47;0.90;;;17.90;99.90;;;;;;5070408;28;20196;-78
2022/10/10 02:44:56;;;;;;;3.55;0.70;;;17.90;99.90;;;;;;5071767;28;20583;-80
2022/10/10 02:47:33;;;;;;;4.55;1.00;;;17.90;99.90;;;;;;5070781;28;20238;-79
2022/10/10 02:50:13;;;;;;;2.60;0.80;;;17.80;99.90;;;;;;5070833;28;20190;-80
2022/10/10 02:52:47;;;;;;;5.10;1.25;;;17.80;99.90;;;;;;5066703;28;20227;-79
2022/10/10 02:55:20;;;;;;;4.05;0.90;;;17.80;99.90;;;;;;5067259;28;21214;-80
2022/10/10 02:57:51;;;;;;;3.00;1.00;;;17.80;99.90;;;;;;5069922;28;20202;-78
2022/10/10 03:00:23;;;;;;;2.92;1.10;;;17.80;99.90;;;;;;5066841;28;20199;-78
2022/10/10 03:02:54;;;;;;;4.63;0.82;;;17.80;99.90;;;;;;5081259;28;20231;-78
2022/10/10 03:05:27;;;;;;;2.55;0.90;;;17.90;99.90;;;;;;5089790;28;20226;-78
2022/10/10 03:07:58;;;;;;;3.13;1.00;;;18.00;99.90;;;;;;5088856;28;20666;-78
2022/10/10 03:10:29;;;;;;;3.53;0.77;;;18.00;99.90;;;;;;5080838;28;20565;-82
2022/10/10 03:13:01;;;;;;;4.75;1.23;;;18.10;99.90;;;;;;5066743;28;23130;-80
2022/10/10 03:15:36;;;;;;;5.55;1.10;;;18.20;99.90;;;;;;5071708;28;20382;-78
2022/10/10 03:18:13;;;;;;;4.70;1.35;;;18.30;99.90;;;;;;5070978;28;20202;-79
2022/10/10 03:20:48;;;;;;;7.50;1.08;;;18.40;99.90;;;;;;5077067;28;20199;-80
2022/10/10 03:23:19;;;;;;;2.35;0.63;;;18.50;99.90;;;;;;5069961;28;22112;-80
2022/10/10 03:25:52;;;;;;;3.67;0.65;;;18.50;99.90;;;;;;5053616;28;20226;-79
2022/10/10 03:28:26;;;;;;;2.83;0.80;;;18.50;99.90;;;;;;5067794;28;20246;-81
2022/10/10 03:31:03;;;;;;;4.13;1.05;;;18.50;99.90;;;;;;5066127;28;20205;-79
2022/10/10 03:33:35;;;;;;;2.75;0.77;;;18.60;99.90;;;;;;5069069;28;20210;-80
2022/10/10 03:36:11;;;;;;;3.47;0.90;;;18.60;99.90;;;;;;5068451;28;20207;-79
2022/10/10 03:38:44;;;;;;;5.55;1.20;;;18.70;99.90;;;;;;5071454;28;20195;-79
2022/10/10 03:41:15;;;;;;;4.07;0.80;;;18.80;99.90;;;;;;5068388;28;20196;-79
2022/10/10 03:46:30;;;;;;;4.68;1.02;;;18.90;99.90;;;;;;5066177;28;22879;-80
2022/10/10 03:49:06;;;;;;;3.22;0.80;;;19.00;99.90;;;;;;5069484;28;20697;-80
2022/10/10 03:51:42;;;;;;;4.90;1.08;;;19.10;99.90;;;;;;5066880;28;20211;-79
2022/10/10 03:54:14;;;;;;;7.25;1.02;;;19.30;99.90;;;;;;5072299;28;20878;-79
2022/10/10 03:56:48;;;;;;;2.22;0.80;;;19.50;99.90;;;;;;5066269;28;20196;-79
2022/10/10 03:59:21;;;;;;;3.70;1.05;;;19.70;99.90;;;;;;5064583;28;20307;-80
2022/10/10 04:01:54;;;;;;;3.80;0.80;;;19.70;99.90;;;;;;5070051;28;20187;-79
2022/10/10 04:04:25;;;;;;;2.25;0.68;;;19.50;99.90;;;;;;5067561;28;20195;-80
2022/10/10 04:06:59;;;;;;;5.65;1.25;;;19.60;99.90;;;;;;5068764;28;20287;-80
2022/10/10 04:09:30;;;;;;;4.22;0.95;;;19.50;99.90;;;;;;5072149;28;21939;-80
2022/10/10 04:12:01;;;;;;;4.93;0.90;;;19.60;99.90;;;;;;5068149;28;20203;-80
2022/10/10 04:14:32;;;;;;;4.32;0.80;;;19.70;99.90;;;;;;5065258;28;20231;-81
2022/10/10 04:17:02;;;;;;;1.52;0.65;;;20.20;99.90;;;;;;5066318;28;21272;-78
2022/10/10 04:19:33;;;;;;;4.80;1.00;;;20.50;99.90;;;;;;5066065;28;20387;-79
2022/10/10 04:22:07;;;;;;;2.42;0.80;;;20.80;99.90;;;;;;5072286;28;20811;-81
2022/10/10 04:24:38;;;;;;;2.55;0.80;;;21.10;99.90;;;;;;5058393;28;20209;-80
2022/10/10 04:27:09;;;;;;;4.15;0.80;;;21.20;99.90;;;;;;5072240;28;20199;-82
2022/10/10 04:29:40;;;;;;;3.30;0.80;;;21.30;99.90;;;;;;5066496;28;20199;-82
2022/10/10 04:32:12;;;;;;;3.83;1.02;;;21.20;99.90;;;;;;5064194;28;22243;-81
2022/10/10 04:34:45;;;;;;;3.70;0.80;;;21.20;99.90;;;;;;5065013;28;20219;-81
2022/10/10 04:37:18;;;;;;;3.47;0.80;;;21.20;99.90;;;;;;5063056;28;22764;-81
2022/10/10 04:39:50;;;;;;;3.80;1.08;;;21.10;99.90;;;;;;5068755;28;20333;-80
2022/10/10 04:42:22;;;;;;;4.32;1.05;;;21.00;99.90;;;;;;5066481;28;20207;-80
2022/10/10 04:44:56;;;;;;;3.05;0.77;;;20.80;99.90;;;;;;5069307;28;20249;-81
2022/10/10 04:47:27;;;;;;;3.33;0.85;;;20.70;99.90;;;;;;5071226;28;21020;-83
2022/10/10 04:50:09;;;;;;;4.43;0.90;;;20.70;99.90;;;;;;5067405;28;20299;-81
2022/10/10 04:52:48;;;;;;;3.88;0.80;;;20.60;99.90;;;;;;5068025;28;20196;-81
2022/10/10 04:55:19;;;;;;;2.83;0.60;;;20.60;99.90;;;;;;5061828;28;20760;-81
2022/10/10 04:57:50;;;;;;;2.35;0.73;;;20.40;99.90;;;;;;5066815;28;20385;-81
2022/10/10 05:00:21;;;;;;;4.50;0.95;;;20.30;99.90;;;;;;5071604;28;20625;-81
2022/10/10 05:02:52;;;;;;;3.58;0.98;;;20.20;99.90;;;;;;5070384;28;20200;-79
2022/10/10 05:05:23;;;;;;;2.33;0.88;;;20.30;99.90;;;;;;5067389;28;20214;-79
2022/10/10 05:07:56;;;;;;;3.28;0.70;;;20.50;99.90;;;;;;5066263;28;20248;-79
2022/10/10 05:10:30;;;;;;;3.17;0.70;;;20.80;99.90;;;;;;5068256;28;20201;-80
2022/10/10 05:13:01;;;;;;;3.80;0.98;;;20.90;99.90;;;;;;5066230;28;20743;-79
2022/10/10 05:15:32;;;;;;;6.75;1.10;;;20.70;99.90;;;;;;5068550;28;20227;-80
2022/10/10 05:18:06;;;;;;;3.42;1.23;;;20.80;99.90;;;;;;5067845;28;20237;-80
2022/10/10 05:20:38;;;;;;;6.25;0.98;;;20.70;99.90;;;;;;5077599;28;20210;-80
2022/10/10 05:23:11;;;;;;;6.32;1.20;;;20.40;99.90;;;;;;5092578;28;20414;-79
2022/10/10 05:25:45;;;;;;;6.85;0.80;;;20.80;99.90;;;;;;5093102;28;20269;-80
2022/10/10 05:28:16;;;;;;;2.95;0.70;;;20.80;99.90;;;;;;5087613;28;20198;-78
2022/10/10 05:30:47;;;;;;;2.03;0.73;;;20.60;99.90;;;;;;5090046;28;20199;-79
2022/10/10 05:33:18;;;;;;;2.42;0.75;;;20.40;99.90;;;;;;5089308;28;20201;-80
2022/10/10 05:35:49;;;;;;;2.97;0.80;;;20.20;99.90;;;;;;5089931;28;20623;-80
2022/10/10 05:38:25;;;;;;;3.65;1.02;;;20.00;99.90;;;;;;5090885;28;20202;-79
2022/10/10 05:40:57;;;;;;;5.00;0.85;;;19.60;99.90;;;;;;5089918;28;20222;-78
2022/10/10 05:43:28;;;;;;;2.53;0.80;;;19.40;99.90;;;;;;5089464;28;20207;-78
2022/10/10 05:45:59;;;;;;;4.32;0.98;;;19.20;99.90;;;;;;5088561;28;20206;-79
2022/10/10 05:48:30;;;;;;;3.45;0.73;;;19.10;99.90;;;;;;5090552;28;20851;-79
2022/10/10 05:51:02;;;;;;;5.20;1.00;;;19.00;99.90;;;;;;5090235;28;20195;-78
2022/10/10 05:53:35;;;;;;;2.85;0.80;;;18.90;99.90;;;;;;5090044;28;20218;-80
2022/10/10 05:56:06;;;;;;;3.85;0.95;;;18.80;99.90;;;;;;5089735;28;20223;-79
2022/10/10 05:58:37;;;;;;;3.65;1.00;;;18.80;99.90;;;;;;5088883;28;20202;-80
2022/10/10 06:01:11;;;;;;;2.63;0.77;;;18.80;99.90;;;;;;5087320;28;20231;-79
2022/10/10 06:03:42;;;;;;;3.45;0.95;;;18.70;99.90;;;;;;5085157;28;20572;-79
2022/10/10 06:06:13;;;;;;;2.25;0.80;;;18.60;99.90;;;;;;5086442;28;20213;-80
2022/10/10 06:08:46;;;;;;;1.77;0.68;;;18.60;99.90;;;;;;5085717;28;20217;-80
2022/10/10 06:11:19;;;;;;;2.85;1.00;;;18.50;99.90;;;;;;5086631;28;20202;-79
2022/10/10 06:13:53;;;;;;;2.53;0.63;;;18.50;99.90;;;;;;5087405;28;20623;-79
2022/10/10 06:16:24;;;;;;;3.97;0.90;;;18.50;99.90;;;;;;5085854;28;20265;-80
2022/10/10 06:18:57;;;;;;;3.88;0.98;;;18.50;99.90;;;;;;5085920;28;20221;-80
2022/10/10 06:21:30;;;;;;;4.80;0.95;;;18.50;99.90;;;;;;5085248;28;20264;-80
2022/10/10 06:24:03;;;;;;;3.42;0.93;;;18.40;99.90;;;;;;5086201;28;20223;-80
2022/10/10 06:26:34;;;;;;;3.67;0.93;;;18.30;99.90;;;;;;5085816;28;20199;-80
2022/10/10 06:29:06;;;;;;;2.58;0.90;;;18.30;99.90;;;;;;5085398;28;20206;-79
2022/10/10 06:31:40;;;;;;;4.07;0.93;;;18.30;99.90;;;;;;5086996;28;20207;-79
2022/10/10 06:34:11;;;;;;;2.70;1.00;;;18.30;99.90;;;;;;5087478;28;20697;-79
2022/10/10 06:36:41;;;;;;;2.25;0.80;;;18.30;99.90;;;;;;5083090;28;20350;-79
2022/10/10 06:39:14;;;;;;;2.63;0.90;;;18.30;99.90;;;;;;5084949;28;20191;-79
2022/10/10 06:41:45;;;;;;;5.65;0.90;;;18.30;99.90;;;;;;5086326;28;20196;-79
2022/10/10 06:44:18;;;;;;;3.70;0.88;;;18.20;99.90;;;;;;5086845;28;20195;-78
2022/10/10 06:46:50;;;;;;;2.33;0.77;;;18.20;99.90;;;;;;5086942;28;20203;-79
2022/10/10 06:49:21;;;;;;;1.70;0.80;;;18.10;99.90;;;;;;5086444;28;20203;-78
2022/10/10 06:51:52;;;;;;;3.35;1.08;;;18.10;99.90;;;;;;5087049;28;20211;-78
2022/10/10 06:54:25;;;;;;;3.03;0.98;;;18.10;99.90;;;;;;5085233;28;20332;-78
2022/10/10 06:56:56;;;;;;;6.22;0.90;;;18.00;99.90;;;;;;5087821;28;20227;-78
2022/10/10 06:59:27;;;;;;;3.20;1.00;;;17.90;99.90;;;;;;5096839;28;20214;-77
2022/10/10 07:01:58;;;;;;;2.72;0.80;;;18.00;99.90;;;;;;5099270;28;20771;-78
2022/10/10 07:04:29;;;;;;;3.47;1.08;;;17.90;99.90;;;;;;5099187;28;20227;-79
2022/10/10 07:07:03;;;;;;;5.85;1.15;;;17.90;99.90;;;;;;5095424;28;20290;-79
2022/10/10 07:09:37;;;;;;;4.32;1.50;;;17.90;99.90;;;;;;5098958;28;20197;-80
2022/10/10 07:12:09;;;;;;;5.45;1.52;;;17.80;99.90;;;;;;5099285;28;20226;-81
2022/10/10 07:14:40;;;;;;;5.45;1.27;;;17.70;99.90;;;;;;5097406;28;20298;-79
2022/10/10 07:17:13;;;;;;;1.67;0.80;;;17.80;99.90;;;;;;5100035;28;20222;-81
2022/10/10 07:19:44;;;;;;;3.08;0.90;;;17.70;99.90;;;;;;5102305;28;20191;-81
2022/10/10 07:22:16;;;;;;;3.53;1.00;;;17.70;99.90;;;;;;5101435;28;20475;-82
2022/10/10 07:24:49;;;;;;;2.63;0.70;;;17.70;99.90;;;;;;5100463;28;20223;-79
2022/10/10 07:27:22;;;;;;;2.97;0.90;;;17.70;99.90;;;;;;5094849;28;20250;-78
2022/10/10 07:29:53;;;;;;;3.45;0.80;;;17.60;99.90;;;;;;5100186;28;20205;-79
2022/10/10 07:32:24;;;;;;;4.38;0.80;;;17.60;99.90;;;;;;5098078;28;20195;-79
2022/10/10 07:34:57;;;;;;;5.50;1.00;;;17.60;99.90;;;;;;5095789;28;20191;-79
2022/10/10 07:37:28;;;;;;;4.60;0.95;;;17.60;99.90;;;;;;5097638;28;20203;-79
2022/10/10 07:40:00;;;;;;;5.10;1.10;;;17.60;99.90;;;;;;5098530;28;20191;-77
2022/10/10 07:42:31;;;;;;;3.15;0.88;;;17.60;99.90;;;;;;5098983;28;20194;-80
2022/10/10 07:45:03;;;;;;;1.42;0.70;;;17.50;99.90;;;;;;5097489;28;20187;-79
2022/10/10 07:47:36;;;;;;;3.33;0.93;;;17.60;99.90;;;;;;5098732;28;20320;-78
2022/10/10 07:50:12;;;;;;;2.63;1.00;;;17.60;99.90;;;;;;5099385;28;20195;-78
2022/10/10 07:52:45;;;;;;;3.13;0.95;;;17.60;99.90;;;;;;5099160;28;20202;-79
2022/10/10 07:55:18;;;;;;;2.97;0.80;;;17.50;99.90;;;;;;5098142;28;20199;-78
2022/10/10 07:57:50;;;;;;;2.38;1.10;;;17.40;99.90;;;;;;5089244;28;20278;-78
2022/10/10 08:00:21;;;;;;;3.95;0.85;;;17.40;99.90;;;;;;5083539;28;20199;-80
2022/10/10 08:02:52;;;;;;;3.17;0.90;;;17.40;99.90;;;;;;5084069;28;20187;-79
2022/10/10 08:05:23;;;;;;;3.17;0.80;;;17.30;99.90;;;;;;5084142;28;20575;-77
2022/10/10 08:07:56;;;;;;;3.22;0.75;;;17.40;99.90;;;;;;5084322;28;20191;-77
2022/10/10 08:10:29;;;;;;;3.95;1.00;;;17.40;99.90;;;;;;5084719;28;20237;-78
2022/10/10 08:13:01;;;;;;;3.38;0.80;;;17.40;99.90;;;;;;5083480;28;20455;-78
2022/10/10 08:15:32;;;;;;;2.63;0.82;;;17.30;99.90;;;;;;5080978;28;20709;-76
2022/10/10 08:18:03;;;;;;;2.17;0.80;;;17.30;99.90;;;;;;5086536;28;20199;-78
2022/10/10 08:20:34;;;;;;;3.33;0.65;;;17.30;99.90;;;;;;5082895;28;20195;-76
2022/10/10 08:23:05;;;;;;;4.38;1.30;;;17.30;99.90;;;;;;5084520;28;20191;-76
2022/10/10 08:25:38;;;;;;;4.68;1.23;;;17.30;99.90;;;;;;5085446;28;20240;-77
2022/10/10 08:28:10;;;;;;;3.15;1.10;;;17.30;99.90;;;;;;5083744;28;20246;-77
2022/10/10 08:30:43;;;;;;;3.50;1.30;;;17.20;99.90;;;;;;5083032;28;20223;-76
2022/10/10 08:33:15;;;;;;;5.32;1.20;;;17.20;99.90;;;;;;5084547;28;20203;-75
2022/10/10 08:35:46;;;;;;;5.03;1.23;;;17.20;99.90;;;;;;5084913;28;20726;-75
2022/10/10 08:38:19;;;;;;;3.28;1.00;;;17.10;99.90;;;;;;5080490;28;20191;-75
2022/10/10 08:40:54;;;;;;;3.40;1.30;;;17.10;99.90;;;;;;5084350;28;20215;-75
2022/10/10 08:43:31;;;;;;;4.68;1.00;;;17.10;99.90;;;;;;5084695;28;20901;-76
2022/10/10 08:46:10;;;;;;;1.98;0.60;;;17.00;99.90;;;;;;5083820;28;20194;-76
2022/10/10 08:48:44;;;;;;;4.00;1.00;;;17.00;99.90;;;;;;5084663;28;20199;-76
2022/10/10 08:51:20;;;;;;;4.90;1.00;;;17.00;99.90;;;;;;5081754;28;20195;-74
2022/10/10 08:53:55;;;;;;;4.70;0.95;;;17.00;99.90;;;;;;5084759;28;20211;-75
2022/10/10 08:56:31;;;;;;;1.85;0.70;;;17.00;99.90;;;;;;5084275;28;20249;-75
2022/10/10 08:59:06;;;;;;;5.95;1.08;;;17.00;99.90;;;;;;5084168;28;20213;-75
2022/10/10 09:01:39;;;;;;;4.80;0.95;;;17.00;99.90;;;;;;5083732;28;20201;-75
2022/10/10 09:04:19;;;;;;;5.22;1.02;;;17.00;99.90;;;;;;5083299;28;20196;-76
2022/10/10 09:07:02;;;;;;;2.45;1.00;;;16.90;99.90;;;;;;5083670;28;21706;-76
2022/10/10 09:09:41;;;;;;;4.70;1.10;;;16.90;99.90;;;;;;5079095;28;20591;-76
2022/10/10 09:12:27;;;;;;;4.72;1.00;;;17.00;99.90;;;;;;5086693;28;20290;-75
2022/10/10 09:15:04;;;;;;;2.28;1.00;;;17.00;99.90;;;;;;5083958;28;20223;-76
2022/10/10 09:17:41;;;;;;;4.72;1.27;;;17.00;99.90;;;;;;5087833;28;20223;-76
2022/10/10 09:20:30;;;;;;;5.60;1.23;;;17.00;99.90;;;;;;5087756;28;20207;-76
2022/10/10 09:23:13;;;;;;;1.75;0.73;;;17.00;99.90;;;;;;5097110;28;20214;-76
2022/10/10 09:26:03;;;;;;;;;;;;;;;;;;;;;
2022/10/10 09:28:52;;;;;;;4.25;1.00;;;17.00;99.90;;;;;;5091774;28;20271;-76
2022/10/10 09:31:40;;;;;;;5.18;1.42;;;17.00;99.90;;;;;;5106498;28;20215;-79
2022/10/10 09:34:18;;;;;;;3.45;1.00;;;17.00;99.90;;;;;;5102014;28;20235;-75
2022/10/10 09:36:53;;;;;;;3.10;0.90;;;17.00;99.90;;;;;;5089079;28;20227;-77
2022/10/10 09:39:34;;;;;;;3.05;1.05;;;17.00;99.90;;;;;;5098018;28;20199;-77
2022/10/10 09:42:16;;;;;;;2.97;1.23;;;17.00;99.90;;;;;;5103028;28;20206;-77
2022/10/10 09:44:55;;;;;;;2.70;0.93;;;17.10;99.90;;;;;;5103352;28;20199;-78
2022/10/10 09:47:32;;;;;;;2.50;0.75;;;17.10;99.90;;;;;;5104309;28;20202;-77
2022/10/10 09:50:15;;;;;;;3.30;0.90;;;17.10;99.90;;;;;;5097689;28;20187;-78
2022/10/10 09:52:50;;;;;;;3.28;0.73;;;17.00;99.90;;;;;;5101611;28;20219;-76
2022/10/10 09:55:36;;;;;;;2.55;0.80;;;17.00;99.90;;;;;;5091232;28;20195;-77
2022/10/10 09:58:26;;;;;;;3.40;0.70;;;17.00;99.90;;;;;;5089748;28;20179;-75
2022/10/10 10:01:17;;;;;;;1.70;0.70;;;17.00;99.90;;;;;;5095593;28;20184;-77
2022/10/10 10:04:14;;;;;;;2.20;0.80;;;17.00;99.90;;;;;;5098443;28;20191;-76
2022/10/10 10:06:55;;;;;;;5.18;1.10;;;16.90;99.90;;;;;;5090312;28;20260;-75
2022/10/10 10:09:26;;;;;;;4.35;1.00;;;17.00;99.90;;;;;;5089160;28;20199;-76
2022/10/10 10:12:01;;;;;;;3.45;1.10;;;16.90;99.90;;;;;;5089992;28;20756;-77
2022/10/10 10:14:40;;;;;;;3.65;0.68;;;16.90;99.90;;;;;;5083951;28;20219;-77
2022/10/10 10:17:19;;;;;;;1.95;0.90;;;16.90;99.90;;;;;;5092782;28;20238;-77
2022/10/10 10:19:51;;;;;;;3.17;1.08;;;16.90;99.90;;;;;;5092499;28;20217;-76
2022/10/10 10:22:36;;;;;;;2.65;1.00;;;16.90;99.90;;;;;;5092980;28;20266;-76
2022/10/10 10:25:31;;;;;;;5.53;1.02;;;16.90;99.90;;;;;;5091634;28;20188;-75
2022/10/10 10:28:25;;;;;;;4.85;0.90;;;16.90;99.90;;;;;;5093154;28;20203;-76
2022/10/10 10:30:57;;;;;;;5.32;0.90;;;16.80;99.90;;;;;;5090086;28;20205;-77
2022/10/10 10:33:44;;;;;;;4.72;0.93;;;16.80;99.90;;;;;;5092014;28;20198;-76
2022/10/10 10:36:27;;;;;;;2.78;0.80;;;16.80;99.90;;;;;;5087206;28;20228;-79
2022/10/10 10:39:06;;;;;;;4.13;0.98;;;16.80;99.90;;;;;;5090685;28;20191;-78
2022/10/10 10:41:46;;;;;;;2.33;0.80;;;16.80;99.90;;;;;;5092858;28;20260;-79
2022/10/10 10:44:30;;;;;;;3.10;0.90;;;16.70;99.90;;;;;;5089979;28;20804;-79
2022/10/10 10:47:18;;;;;;;3.40;1.00;;;16.80;99.90;;;;;;5093502;28;20219;-78
2022/10/10 10:50:01;;;;;;;2.65;0.63;;;16.80;99.90;;;;;;5092538;28;20272;-79
2022/10/10 10:52:49;;;;;;;2.22;0.75;;;16.80;99.90;;;;;;5092049;28;20195;-78
2022/10/10 10:55:28;;;;;;;2.75;0.95;;;16.80;99.90;;;;;;5093175;28;20673;-77
2022/10/10 10:58:27;;;;;;;4.35;1.10;;;16.80;99.90;;;;;;5092648;28;20226;-78
2022/10/10 11:01:00;;;;;;;3.40;0.93;;;16.80;99.90;;;;;;5083122;28;20654;-76
2022/10/10 11:03:46;;;;;;;2.75;1.00;;;16.80;99.90;;;;;;5091552;28;20719;-77
2022/10/10 11:06:41;;;;;;;2.35;0.80;;;16.80;99.90;;;;;;5091916;28;20226;-79
2022/10/10 11:09:18;;;;;;;3.75;1.10;;;16.80;99.90;;;;;;5086386;28;20203;-78
2022/10/10 11:12:02;;;;;;;5.25;0.93;;;16.80;99.90;;;;;;5091990;28;20197;-79
2022/10/10 11:14:48;;;;;;;2.38;0.90;;;16.80;99.90;;;;;;5091749;28;20594;-79
2022/10/10 11:17:24;;;;;;;2.75;0.93;;;16.80;99.90;;;;;;5086574;28;20875;-78
2022/10/10 11:20:00;;;;;;;2.13;0.80;;;16.80;99.90;;;;;;5085081;28;20210;-77
2022/10/10 11:22:41;;;;;;;1.67;0.80;;;16.80;99.90;;;;;;5086397;28;20205;-79
2022/10/10 11:25:22;;;;;;;3.22;0.82;;;16.80;99.90;;;;;;5085258;28;20289;-78
2022/10/10 11:27:59;;;;;;;4.45;0.95;;;16.80;99.90;;;;;;5086697;28;20272;-77
2022/10/10 11:30:34;;;;;;;5.20;1.00;;;16.80;99.90;;;;;;5087955;28;20260;-77
2022/10/10 11:33:12;;;;;;;2.40;0.82;;;16.80;99.90;;;;;;5085081;28;20544;-77
2022/10/10 11:35:48;;;;;;;2.45;0.90;;;16.80;99.90;;;;;;5083742;28;20588;-77
2022/10/10 11:38:28;;;;;;;1.95;0.70;;;16.80;99.90;;;;;;5084442;28;20230;-77
2022/10/10 11:41:03;;;;;;;2.67;0.90;;;16.80;99.90;;;;;;5082343;28;20195;-77
2022/10/10 11:43:45;;;;;;;2.80;1.00;;;16.80;99.90;;;;;;5085182;28;20205;-77
2022/10/10 11:46:26;;;;;;;4.03;0.95;;;16.70;99.90;;;;;;5085619;28;20215;-77
2022/10/10 11:49:05;;;;;;;4.18;1.00;;;16.80;99.90;;;;;;5085637;28;20975;-77
2022/10/10 11:51:46;;;;;;;2.67;0.70;;;16.80;99.90;;;;;;5085408;28;20576;-77
2022/10/10 11:54:34;;;;;;;3.45;1.00;;;16.80;99.90;;;;;;5084650;28;20282;-78
2022/10/10 11:57:10;;;;;;;3.90;1.05;;;16.80;99.90;;;;;;5084752;28;20310;-78
2022/10/10 11:59:46;;;;;;;1.60;0.75;;;16.80;99.90;;;;;;5086413;28;20282;-78
2022/10/10 12:02:22;;;;;;;2.88;0.90;;;16.80;99.90;;;;;;5083359;28;20215;-78
2022/10/10 12:04:54;;;;;;;5.38;0.90;;;16.80;99.90;;;;;;5083631;28;20195;-77
2022/10/10 12:07:29;;;;;;;2.85;0.80;;;16.80;99.90;;;;;;5083503;28;20201;-77
2022/10/10 12:10:04;;;;;;;4.63;1.10;;;16.80;99.90;;;;;;5082764;28;20197;-78
2022/10/10 12:12:39;;;;;;;2.75;1.00;;;16.80;99.90;;;;;;5085428;28;20198;-78
2022/10/10 12:15:19;;;;;;;2.28;0.80;;;16.90;99.90;;;;;;5085357;28;20234;-79
2022/10/10 12:17:50;;;;;;;3.03;1.00;;;16.80;99.90;;;;;;5085567;28;20245;-79
2022/10/10 12:20:35;;;;;;;1.73;0.77;;;16.90;99.90;;;;;;5086148;28;20207;-79
2022/10/10 12:23:24;;;;;;;1.90;0.80;;;16.90;99.90;;;;;;5084548;28;20199;-79
2022/10/10 12:25:57;;;;;;;3.83;0.80;;;16.80;99.90;;;;;;5083784;28;20237;-79
2022/10/10 12:28:30;;;;;;;2.38;0.70;;;16.80;99.90;;;;;;5085157;28;20206;-78
2022/10/10 12:31:30;;;;;;;2.22;0.70;;;16.80;99.90;;;;;;5084016;28;20247;-77
2022/10/10 12:34:39;;;;;;;3.25;0.90;;;16.90;99.90;;;;;;5082887;28;20272;-78
2022/10/10 12:37:27;;;;;;;1.70;0.70;;;16.80;99.90;;;;;;5084334;28;20272;-77
2022/10/10 12:40:25;;;;;;;2.28;0.80;;;16.80;99.90;;;;;;5082052;28;20199;-76
2022/10/10 12:43:24;;;;;;;0.75;0.50;;;16.80;99.90;;;;;;5085764;28;20597;-75
2022/10/10 12:46:26;;;;;;;1.70;0.68;;;16.80;99.90;;;;;;5085071;28;20218;-76
2022/10/10 12:49:17;;;;;;;2.10;0.73;;;16.80;99.90;;;;;;5090175;28;20202;-76
2022/10/10 12:52:00;;;;;;;1.73;0.98;;;16.70;99.90;;;;;;5087652;28;20293;-75
2022/10/10 12:54:35;;;;;;;2.78;0.90;;;16.80;99.90;;;;;;5086547;28;20685;-75
2022/10/10 12:57:17;;;;;;;2.85;0.80;;;16.70;99.90;;;;;;5093164;28;20229;-75
2022/10/10 12:59:50;;;;;;;1.95;0.63;;;16.70;99.90;;;;;;5088271;28;20654;-75
2022/10/10 13:02:25;;;;;;;2.55;0.80;;;16.70;99.90;;;;;;5088435;28;20203;-75
2022/10/10 13:04:59;;;;;;;2.88;0.90;;;16.70;99.90;;;;;;5090543;28;20198;-75
2022/10/10 13:07:31;;;;;;;2.72;0.80;;;16.70;99.90;;;;;;5088388;28;20199;-75
2022/10/10 13:10:10;;;;;;;3.75;0.75;;;16.70;99.90;;;;;;5093223;28;20195;-75
2022/10/10 13:12:41;;;;;;;2.38;0.90;;;16.70;99.90;;;;;;5089131;28;20183;-75
2022/10/10 13:15:24;;;;;;;2.72;0.93;;;16.70;99.90;;;;;;5094447;28;20223;-75
2022/10/10 13:17:55;;;;;;;2.25;0.75;;;16.70;99.90;;;;;;5088805;28;20951;-75
2022/10/10 13:20:39;;;;;;;2.33;0.80;;;16.70;99.90;;;;;;5087026;28;20202;-76
2022/10/10 13:23:14;;;;;;;2.47;0.77;;;16.70;99.90;;;;;;5087301;28;20693;-76
2022/10/10 13:25:48;;;;;;;1.73;0.63;;;16.70;99.90;;;;;;5086605;28;20195;-76
2022/10/10 13:28:21;;;;;;;2.13;0.95;;;16.70;99.90;;;;;;5085701;28;20201;-77
2022/10/10 13:30:55;;;;;;;2.85;0.80;;;16.70;99.90;;;;;;5088605;28;20207;-76
2022/10/10 13:33:30;;;;;;;3.80;1.00;;;16.70;99.90;;;;;;5087207;28;20197;-76
2022/10/10 13:36:08;;;;;;;2.95;0.80;;;16.70;99.90;;;;;;5086345;28;20195;-78
2022/10/10 13:38:39;;;;;;;2.45;0.80;;;16.60;99.90;;;;;;5086024;28;20245;-77
2022/10/10 13:41:11;;;;;;;2.85;0.80;;;16.60;99.90;;;;;;5085345;28;20196;-78